AirNav   Everest Fuels
 
 742 users online  

4AZ9 Leroy Airport
Willcox, Arizona, USA

GOING TO WILLCOX?


FAA INFORMATION EFFECTIVE 02 DECEMBER 2021

Location

FAA Identifier: 4AZ9
Lat/Long: 32-06-47.0000N 109-45-42.0000W
32-06.783333N 109-45.700000W
32.1130556,-109.7616667
(estimated)
Elevation: 4197 ft. / 1279 m (estimated)
Variation: 12E (1990)
From city: 10 miles SE of WILLCOX, AZ
Time zone: UTC -7 (year round; does not observe DST)
Zip code: 85606

Airport Operations

Airport use: Private use. Permission required prior to landing
Activation date: 09/1994
Control tower: no
ARTCC: ALBUQUERQUE CENTER
FSS: PRESCOTT FLIGHT SERVICE STATION
Attendance: UNATNDD
Segmented circle: no

Nearby radio navigation aids

VOR radial/distance  VOR name  Freq  Var
SSOr237/27.0SAN SIMON VORTAC115.4013E
DUGr335/39.3DOUGLAS VORTAC108.8013E

Airport Services

Runway Information

Runway 7/25

Dimensions: 2640 x 70 ft. / 805 x 21 m
Surface: turf
RUNWAY 7  RUNWAY 25
Traffic pattern: leftleft

Airport Ownership and Management from official FAA records

Ownership: Privately-owned
Owner: LEROY ENTERPRISES, INC.
6805 S. KS SETTLEMENT ROAD
WILLCOX, AZ 85643
Phone 520-253-0757
Manager: PHIL LEROY
PO BOX 1078
WILLCOX, AZ 85644
Phone 520-253-0757

Airport Operational Statistics

Aircraft based on the field: 13
Single engine airplanes: 3
Ultralights: 10
    

Additional Remarks

FOR CD CTC ALBUQUERQUE ARTCC AT 505-856-4861.

Instrument Procedures

There are no published instrument procedures at 4AZ9.

Some nearby airports with instrument procedures:

P33 - Cochise County Airport (10 nm NW)
KDUG - Bisbee Douglas International Airport (39 nm S)
KFHU - Sierra Vista Municipal Airport-Libby Army Airfield (43 nm SW)
KSAD - Safford Regional Airport (45 nm N)
KDMA - Davis Monthan Air Force Base (57 nm W)
 
Loc | Ops | Rwys | IFR | FBO | Links
Com | Nav | Svcs | Stats | Notes
Area around 4AZ9 (Leroy Airport)
 
Road maps at: MapQuest Bing Google
 
Aerial photo
WARNING: Photo may not be current or correct
Aerial photo of 4AZ9 (Leroy Airport)
Do you have a better or more recent aerial photo of Leroy Airport that you would like to share? If so, please send us your photo.

 
Sectional chart

 
Airport distance calculator
Flying to Leroy Airport? Find the distance to fly.

From to 4AZ9

Sunrise and sunset
Times for 04-Dec-2021
 Local
(UTC-7)
 Zulu
(UTC)
Morning civil twilight06:3913:39
Sunrise07:0514:05
Sunset17:1300:13
Evening civil twilight17:4000:40

Current date and time
Zulu (UTC)  04-Dec-2021 13:34:18
Local (UTC-7)  04-Dec-2021 06:34:18
 
METAR
KFHU 
42nm SW 
041258Z AUTO 21005KT 10SM FEW200 SCT220 09/M06 A3017 RMK AO2 SLP177 T00891059
KSAD 
45nm N 
041251Z AUTO 00000KT 10SM CLR 05/M01 A3012 RMK AO2 SLP181 T00501011
KALK 
46nm SW 
041256Z AUTO 17003KT 10SM CLR 08/M04 A3017 RMK AO2 SLP160 T00781039
TAF
KFHU 
42nm SW 
032200Z 0322/0504 22009KT 9999 SKC QNH3009INS BECMG 0402/0403 30009KT 9999 SKC QNH3014INS BECMG 0408/0409 24009KT 9999 SCT170 QNH3013INS BECMG 0420/0421 23009KT 9999 BKN120 611205 QNH3011INS TX22/0322Z TN08/0412Z LAST NO AMDS AFT 0406 NEXT 0606
NOTAMs
Click for the latest NOTAMs
NOTAMs are issued by the DoD/FAA and will open in a separate window not controlled by AirNav.

 

 
 

Would you like to see your business listed on this page?

 If your business provides an interesting product or service to pilots, flight crews, aircraft, or users of the Leroy Airport, you should consider listing it here.  To start the listing process, click on the button below
 
Add a business
 

Other Pages about Leroy Airport

www.leroyent.com/airport.htm
www.leroyent.com/directions.htm
 
Update a link
 
Copyright © AirNav, LLC. All rights reserved. Privacy Policy  Contact